Weather at Alghero-Fertilia Airport

Public forecast

Using degrees Celsius for public forecast. Weather courtesy of forecast.io.

Current aviation weather report (METAR) for Alghero-Fertilia Airport

Retrieved 2020/10/30 03:20 UTC (12 minutes ago):

LIEA 300320Z 25004KT 220V290 9999 FEW020 16/14 Q1024

Aviation forecast (TAF) for Alghero-Fertilia Airport

Retrieved 2020-10-30 00:22 UTC (3 hours ago):

TAF LIEA 292300Z 3000/3024 30008KT 9999 SCT020